RJNG(METAR)
08/15 05:00
METAR RJNG 142000Z VRB02KT 9999 FEW030 26/22 Q1008 RMK 1CU030 A2979=
戻る
トップページへ戻る
IMOC Co,.Ltd.